Terminal Aerodrome Forecast
Issued by NWS Cleveland, OH

Home | Current Version | Previous Version | Graphics & Text | Print | Product List | Glossary On
Versions: 1 2 3 4 5 6 7 8 9 10 11 12 13 14 15 16 17 18 19 20 21 22 23 24 25 26 27 28 29 30 31 32 33 34 35 36 37 38 39 40
000
FTUS41 KCLE 072045 AAB
TAFCLE
TAF AMD
KCLE 072045Z 0721/0824 20012KT P6SM BKN250
     FM072300 19010KT P6SM BKN120
     FM080200 19010KT P6SM SCT045 OVC100
      TEMPO 0802/0806 BKN045
     FM080600 20008KT P6SM -RA OVC045
      TEMPO 0808/0812 5SM -RASN BR OVC025
     FM081200 20006KT 4SM -RASN BR OVC010
     FM081400 20006KT 3SM -RASN BR OVC008
     FM081800 28005KT 5SM -RASN BR OVC015=

USA.gov is the U.S. government's official web portal to all federal, state and local government web resources and services.